sensor_id;sensor_type;location;lat;lon;timestamp;temperature;humidity
63202;DHT22;49296;48.188;11.566;2023-02-28T00:00:33;0.34;62.77
63202;DHT22;49296;48.188;11.566;2023-02-28T00:03:01;0.41;62.61
63202;DHT22;49296;48.188;11.566;2023-02-28T00:05:28;0.48;62.20
63202;DHT22;49296;48.188;11.566;2023-02-28T00:07:55;0.38;62.23
63202;DHT22;49296;48.188;11.566;2023-02-28T00:10:25;0.44;62.30
63202;DHT22;49296;48.188;11.566;2023-02-28T00:12:53;0.21;62.67
63202;DHT22;49296;48.188;11.566;2023-02-28T00:15:22;0.16;62.88
63202;DHT22;49296;48.188;11.566;2023-02-28T00:17:49;0.07;63.18
63202;DHT22;49296;48.188;11.566;2023-02-28T00:20:16;0.18;63.04
63202;DHT22;49296;48.188;11.566;2023-02-28T00:22:45;0.00;63.07
63202;DHT22;49296;48.188;11.566;2023-02-28T00:25:15;0.11;63.06
63202;DHT22;49296;48.188;11.566;2023-02-28T00:27:44;0.03;63.09
63202;DHT22;49296;48.188;11.566;2023-02-28T00:30:13;-0.02;63.38
63202;DHT22;49296;48.188;11.566;2023-02-28T00:32:40;0.02;63.33
63202;DHT22;49296;48.188;11.566;2023-02-28T00:35:08;0.07;63.33
63202;DHT22;49296;48.188;11.566;2023-02-28T00:37:35;0.03;63.26
63202;DHT22;49296;48.188;11.566;2023-02-28T00:40:02;0.09;63.26
63202;DHT22;49296;48.188;11.566;2023-02-28T00:42:29;0.07;63.68
63202;DHT22;49296;48.188;11.566;2023-02-28T00:44:58;0.09;63.39
63202;DHT22;49296;48.188;11.566;2023-02-28T00:47:25;0.10;63.38
63202;DHT22;49296;48.188;11.566;2023-02-28T00:49:54;0.00;63.58
63202;DHT22;49296;48.188;11.566;2023-02-28T00:52:21;0.13;63.44
63202;DHT22;49296;48.188;11.566;2023-02-28T00:54:47;0.18;63.27
63202;DHT22;49296;48.188;11.566;2023-02-28T00:57:14;0.27;63.00
63202;DHT22;49296;48.188;11.566;2023-02-28T00:59:41;0.18;63.04
63202;DHT22;49296;48.188;11.566;2023-02-28T01:02:09;0.14;63.23
63202;DHT22;49296;48.188;11.566;2023-02-28T01:04:36;0.21;63.38
63202;DHT22;49296;48.188;11.566;2023-02-28T01:07:02;0.17;63.55
63202;DHT22;49296;48.188;11.566;2023-02-28T01:09:29;0.09;63.47
63202;DHT22;49296;48.188;11.566;2023-02-28T01:11:55;0.07;63.58
63202;DHT22;49296;48.188;11.566;2023-02-28T01:14:22;0.07;63.74
63202;DHT22;49296;48.188;11.566;2023-02-28T01:16:49;0.02;64.03
63202;DHT22;49296;48.188;11.566;2023-02-28T01:19:18;-0.05;63.82
63202;DHT22;49296;48.188;11.566;2023-02-28T01:21:45;-0.04;63.80
63202;DHT22;49296;48.188;11.566;2023-02-28T01:24:13;-0.12;64.25
63202;DHT22;49296;48.188;11.566;2023-02-28T01:26:40;-0.17;63.96
63202;DHT22;49296;48.188;11.566;2023-02-28T01:29:06;-0.05;63.97
63202;DHT22;49296;48.188;11.566;2023-02-28T01:31:33;-0.04;63.99
63202;DHT22;49296;48.188;11.566;2023-02-28T01:34:00;-0.05;63.99
63202;DHT22;49296;48.188;11.566;2023-02-28T01:36:28;-0.14;64.05
63202;DHT22;49296;48.188;11.566;2023-02-28T01:38:55;-0.12;64.13
63202;DHT22;49296;48.188;11.566;2023-02-28T01:41:24;-0.12;64.24
63202;DHT22;49296;48.188;11.566;2023-02-28T01:43:57;-0.11;64.24
63202;DHT22;49296;48.188;11.566;2023-02-28T01:46:24;-0.11;64.10
63202;DHT22;49296;48.188;11.566;2023-02-28T01:48:54;-0.22;64.51
63202;DHT22;49296;48.188;11.566;2023-02-28T01:51:29;-0.19;64.59
63202;DHT22;49296;48.188;11.566;2023-02-28T01:54:00;-0.25;64.83
63202;DHT22;49296;48.188;11.566;2023-02-28T01:56:30;-0.17;64.67
63202;DHT22;49296;48.188;11.566;2023-02-28T01:58:59;-0.07;64.36
63202;DHT22;49296;48.188;11.566;2023-02-28T02:01:27;-0.40;64.88
63202;DHT22;49296;48.188;11.566;2023-02-28T02:03:55;-0.18;64.67
63202;DHT22;49296;48.188;11.566;2023-02-28T02:06:25;-0.11;64.50
63202;DHT22;49296;48.188;11.566;2023-02-28T02:08:54;-0.09;64.31
63202;DHT22;49296;48.188;11.566;2023-02-28T02:11:22;-0.09;64.49
63202;DHT22;49296;48.188;11.566;2023-02-28T02:14:05;-0.15;64.53
63202;DHT22;49296;48.188;11.566;2023-02-28T02:16:46;-0.25;64.85
63202;DHT22;49296;48.188;11.566;2023-02-28T02:19:39;-0.40;65.21
63202;DHT22;49296;48.188;11.566;2023-02-28T02:22:21;-0.25;65.07
63202;DHT22;49296;48.188;11.566;2023-02-28T02:25:20;-0.22;64.81
63202;DHT22;49296;48.188;11.566;2023-02-28T02:31:31;-0.18;64.89
63202;DHT22;49296;48.188;11.566;2023-02-28T02:34:37;-0.17;65.06
63202;DHT22;49296;48.188;11.566;2023-02-28T02:37:13;-0.22;64.88
63202;DHT22;49296;48.188;11.566;2023-02-28T02:39:48;-0.18;64.98
63202;DHT22;49296;48.188;11.566;2023-02-28T02:42:23;-0.26;65.23
63202;DHT22;49296;48.188;11.566;2023-02-28T02:44:58;-0.21;65.23
63202;DHT22;49296;48.188;11.566;2023-02-28T02:47:29;-0.25;65.22
63202;DHT22;49296;48.188;11.566;2023-02-28T02:50:02;-0.29;65.32
63202;DHT22;49296;48.188;11.566;2023-02-28T02:52:37;-0.35;65.38
63202;DHT22;49296;48.188;11.566;2023-02-28T02:55:06;-0.35;65.56
63202;DHT22;49296;48.188;11.566;2023-02-28T02:57:36;-0.40;65.71
63202;DHT22;49296;48.188;11.566;2023-02-28T03:00:06;-0.37;65.52
63202;DHT22;49296;48.188;11.566;2023-02-28T03:02:35;-0.35;65.57
63202;DHT22;49296;48.188;11.566;2023-02-28T03:05:07;-0.29;65.50
63202;DHT22;49296;48.188;11.566;2023-02-28T03:07:35;-0.45;66.10
63202;DHT22;49296;48.188;11.566;2023-02-28T03:10:01;-0.43;66.18
63202;DHT22;49296;48.188;11.566;2023-02-28T03:12:32;-0.37;66.15
63202;DHT22;49296;48.188;11.566;2023-02-28T03:15:07;-0.32;66.00
63202;DHT22;49296;48.188;11.566;2023-02-28T03:17:56;-0.36;66.06
63202;DHT22;49296;48.188;11.566;2023-02-28T03:20:35;-0.42;66.03
63202;DHT22;49296;48.188;11.566;2023-02-28T03:23:13;-0.43;66.20
63202;DHT22;49296;48.188;11.566;2023-02-28T03:25:50;-0.37;66.25
63202;DHT22;49296;48.188;11.566;2023-02-28T03:28:23;-0.33;66.29
63202;DHT22;49296;48.188;11.566;2023-02-28T03:30:58;-0.35;66.54
63202;DHT22;49296;48.188;11.566;2023-02-28T03:33:29;-0.36;66.51
63202;DHT22;49296;48.188;11.566;2023-02-28T03:35:59;-0.29;66.34
63202;DHT22;49296;48.188;11.566;2023-02-28T03:38:33;-0.30;66.56
63202;DHT22;49296;48.188;11.566;2023-02-28T03:41:05;-0.33;66.53
63202;DHT22;49296;48.188;11.566;2023-02-28T03:43:35;-0.30;66.55
63202;DHT22;49296;48.188;11.566;2023-02-28T03:46:06;-0.28;66.53
63202;DHT22;49296;48.188;11.566;2023-02-28T03:48:39;-0.33;66.78
63202;DHT22;49296;48.188;11.566;2023-02-28T03:51:10;-0.28;66.81
63202;DHT22;49296;48.188;11.566;2023-02-28T03:53:41;-0.32;66.61
63202;DHT22;49296;48.188;11.566;2023-02-28T03:56:18;-0.50;67.28
63202;DHT22;49296;48.188;11.566;2023-02-28T03:58:49;-0.45;67.19
63202;DHT22;49296;48.188;11.566;2023-02-28T04:01:20;-0.53;67.57
63202;DHT22;49296;48.188;11.566;2023-02-28T04:03:49;-0.53;67.33
63202;DHT22;49296;48.188;11.566;2023-02-28T04:06:19;-0.59;67.45
63202;DHT22;49296;48.188;11.566;2023-02-28T04:08:46;-0.64;67.75
63202;DHT22;49296;48.188;11.566;2023-02-28T04:11:20;-0.69;67.88
63202;DHT22;49296;48.188;11.566;2023-02-28T04:13:47;-0.71;68.46
63202;DHT22;49296;48.188;11.566;2023-02-28T04:16:14;-0.59;67.91
63202;DHT22;49296;48.188;11.566;2023-02-28T04:18:41;-0.53;67.72
63202;DHT22;49296;48.188;11.566;2023-02-28T04:21:09;-0.49;67.64
63202;DHT22;49296;48.188;11.566;2023-02-28T04:23:37;-0.48;67.55
63202;DHT22;49296;48.188;11.566;2023-02-28T04:26:04;-0.56;67.93
63202;DHT22;49296;48.188;11.566;2023-02-28T04:28:31;-0.49;67.96
63202;DHT22;49296;48.188;11.566;2023-02-28T04:31:00;-0.48;67.97
63202;DHT22;49296;48.188;11.566;2023-02-28T04:33:28;-0.36;67.68
63202;DHT22;49296;48.188;11.566;2023-02-28T04:35:58;-0.42;68.14
63202;DHT22;49296;48.188;11.566;2023-02-28T04:38:25;-0.33;67.85
63202;DHT22;49296;48.188;11.566;2023-02-28T04:40:53;-0.32;67.88
63202;DHT22;49296;48.188;11.566;2023-02-28T04:43:20;-0.25;67.71
63202;DHT22;49296;48.188;11.566;2023-02-28T04:45:46;-0.29;68.14
63202;DHT22;49296;48.188;11.566;2023-02-28T04:48:13;-0.28;67.95
63202;DHT22;49296;48.188;11.566;2023-02-28T04:50:40;-0.33;67.92
63202;DHT22;49296;48.188;11.566;2023-02-28T04:53:06;-0.36;68.29
63202;DHT22;49296;48.188;11.566;2023-02-28T04:55:33;-0.30;68.23
63202;DHT22;49296;48.188;11.566;2023-02-28T04:58:01;-0.35;68.52
63202;DHT22;49296;48.188;11.566;2023-02-28T05:00:28;-0.23;68.20
63202;DHT22;49296;48.188;11.566;2023-02-28T05:02:54;-0.28;68.54
63202;DHT22;49296;48.188;11.566;2023-02-28T05:05:21;-0.23;68.27
63202;DHT22;49296;48.188;11.566;2023-02-28T05:07:48;-0.19;68.58
63202;DHT22;49296;48.188;11.566;2023-02-28T05:10:14;-0.23;68.57
63202;DHT22;49296;48.188;11.566;2023-02-28T05:12:41;-0.18;68.32
63202;DHT22;49296;48.188;11.566;2023-02-28T05:15:12;-0.18;68.15
63202;DHT22;49296;48.188;11.566;2023-02-28T05:17:39;-0.15;68.19
63202;DHT22;49296;48.188;11.566;2023-02-28T05:20:07;-0.01;68.08
63202;DHT22;49296;48.188;11.566;2023-02-28T05:22:36;0.03;67.55
63202;DHT22;49296;48.188;11.566;2023-02-28T05:25:03;0.05;67.47
63202;DHT22;49296;48.188;11.566;2023-02-28T05:27:31;-0.15;68.04
63202;DHT22;49296;48.188;11.566;2023-02-28T05:29:57;-0.12;67.98
63202;DHT22;49296;48.188;11.566;2023-02-28T05:32:25;-0.33;68.89
63202;DHT22;49296;48.188;11.566;2023-02-28T05:34:52;-0.19;68.37
63202;DHT22;49296;48.188;11.566;2023-02-28T05:37:19;-0.15;68.11
63202;DHT22;49296;48.188;11.566;2023-02-28T05:39:46;-0.43;68.40
63202;DHT22;49296;48.188;11.566;2023-02-28T05:42:12;-0.28;68.45
63202;DHT22;49296;48.188;11.566;2023-02-28T05:44:39;-0.39;68.26
63202;DHT22;49296;48.188;11.566;2023-02-28T05:47:07;-0.40;68.75
63202;DHT22;49296;48.188;11.566;2023-02-28T05:49:35;-0.43;68.89
63202;DHT22;49296;48.188;11.566;2023-02-28T05:52:01;-0.42;68.72
63202;DHT22;49296;48.188;11.566;2023-02-28T05:54:28;-0.21;68.60
63202;DHT22;49296;48.188;11.566;2023-02-28T05:56:55;-0.21;68.06
63202;DHT22;49296;48.188;11.566;2023-02-28T05:59:21;-0.07;67.83
63202;DHT22;49296;48.188;11.566;2023-02-28T06:01:48;-0.11;67.92
63202;DHT22;49296;48.188;11.566;2023-02-28T06:04:16;-0.11;67.97
63202;DHT22;49296;48.188;11.566;2023-02-28T06:06:46;-0.18;68.21
63202;DHT22;49296;48.188;11.566;2023-02-28T06:09:12;-0.19;68.26
63202;DHT22;49296;48.188;11.566;2023-02-28T06:11:40;-0.25;68.03
63202;DHT22;49296;48.188;11.566;2023-02-28T06:14:09;-0.23;68.32
63202;DHT22;49296;48.188;11.566;2023-02-28T06:16:39;-0.30;68.29
63202;DHT22;49296;48.188;11.566;2023-02-28T06:19:06;-0.23;68.73
63202;DHT22;49296;48.188;11.566;2023-02-28T06:21:33;-0.29;68.37
63202;DHT22;49296;48.188;11.566;2023-02-28T06:24:02;-0.05;67.88
63202;DHT22;49296;48.188;11.566;2023-02-28T06:26:29;-0.08;67.58
63202;DHT22;49296;48.188;11.566;2023-02-28T06:28:55;-0.19;67.38
63202;DHT22;49296;48.188;11.566;2023-02-28T06:31:22;-0.14;67.38
63202;DHT22;49296;48.188;11.566;2023-02-28T06:33:51;-0.07;67.34
63202;DHT22;49296;48.188;11.566;2023-02-28T06:36:18;-0.19;67.21
63202;DHT22;49296;48.188;11.566;2023-02-28T06:38:45;-0.36;68.13
63202;DHT22;49296;48.188;11.566;2023-02-28T06:41:17;-0.15;67.75
63202;DHT22;49296;48.188;11.566;2023-02-28T06:43:44;-0.35;68.24
63202;DHT22;49296;48.188;11.566;2023-02-28T06:46:13;-0.33;68.10
63202;DHT22;49296;48.188;11.566;2023-02-28T06:48:40;-0.19;67.90
63202;DHT22;49296;48.188;11.566;2023-02-28T06:51:08;-0.28;68.25
63202;DHT22;49296;48.188;11.566;2023-02-28T06:53:35;-0.23;68.11
63202;DHT22;49296;48.188;11.566;2023-02-28T06:56:04;-0.32;68.02
63202;DHT22;49296;48.188;11.566;2023-02-28T06:58:33;-0.40;68.37
63202;DHT22;49296;48.188;11.566;2023-02-28T07:01:00;-0.33;68.40
63202;DHT22;49296;48.188;11.566;2023-02-28T07:03:27;-0.40;68.37
63202;DHT22;49296;48.188;11.566;2023-02-28T07:05:53;-0.42;68.30
63202;DHT22;49296;48.188;11.566;2023-02-28T07:08:21;-0.79;69.71
63202;DHT22;49296;48.188;11.566;2023-02-28T07:10:51;-0.40;68.79
63202;DHT22;49296;48.188;11.566;2023-02-28T07:13:19;-0.25;68.24
63202;DHT22;49296;48.188;11.566;2023-02-28T07:15:54;-0.09;67.90
63202;DHT22;49296;48.188;11.566;2023-02-28T07:18:21;-0.14;67.95
63202;DHT22;49296;48.188;11.566;2023-02-28T07:20:48;-0.12;67.99
63202;DHT22;49296;48.188;11.566;2023-02-28T07:23:14;-0.12;68.11
63202;DHT22;49296;48.188;11.566;2023-02-28T07:25:41;-0.04;68.01
63202;DHT22;49296;48.188;11.566;2023-02-28T07:28:08;-0.19;68.17
63202;DHT22;49296;48.188;11.566;2023-02-28T07:30:35;-0.11;69.88
63202;DHT22;49296;48.188;11.566;2023-02-28T07:33:03;-0.09;68.47
63202;DHT22;49296;48.188;11.566;2023-02-28T07:35:30;0.00;68.02
63202;DHT22;49296;48.188;11.566;2023-02-28T07:37:57;0.06;67.70
63202;DHT22;49296;48.188;11.566;2023-02-28T07:40:23;0.07;67.21
63202;DHT22;49296;48.188;11.566;2023-02-28T07:42:50;0.07;67.07
63202;DHT22;49296;48.188;11.566;2023-02-28T07:45:17;0.13;67.24
63202;DHT22;49296;48.188;11.566;2023-02-28T07:47:44;0.11;67.36
63202;DHT22;49296;48.188;11.566;2023-02-28T07:50:14;-0.09;67.50
63202;DHT22;49296;48.188;11.566;2023-02-28T07:52:41;0.00;67.73
63202;DHT22;49296;48.188;11.566;2023-02-28T07:55:09;0.17;67.59
63202;DHT22;49296;48.188;11.566;2023-02-28T07:57:36;0.00;67.71
63202;DHT22;49296;48.188;11.566;2023-02-28T08:00:03;-0.09;67.84
63202;DHT22;49296;48.188;11.566;2023-02-28T08:02:29;0.10;67.51
63202;DHT22;49296;48.188;11.566;2023-02-28T08:04:56;-0.04;68.45
63202;DHT22;49296;48.188;11.566;2023-02-28T08:07:24;-0.09;68.21
63202;DHT22;49296;48.188;11.566;2023-02-28T08:09:51;0.03;67.32
63202;DHT22;49296;48.188;11.566;2023-02-28T08:12:18;0.03;67.62
63202;DHT22;49296;48.188;11.566;2023-02-28T08:14:44;0.06;67.32
63202;DHT22;49296;48.188;11.566;2023-02-28T08:17:11;0.24;66.79
63202;DHT22;49296;48.188;11.566;2023-02-28T08:19:38;0.17;67.50
63202;DHT22;49296;48.188;11.566;2023-02-28T08:22:04;0.18;67.39
63202;DHT22;49296;48.188;11.566;2023-02-28T08:24:32;0.06;67.66
63202;DHT22;49296;48.188;11.566;2023-02-28T08:26:59;0.24;67.55
63202;DHT22;49296;48.188;11.566;2023-02-28T08:29:27;0.38;66.75
63202;DHT22;49296;48.188;11.566;2023-02-28T08:31:55;0.43;66.21
63202;DHT22;49296;48.188;11.566;2023-02-28T08:34:22;0.26;66.56
63202;DHT22;49296;48.188;11.566;2023-02-28T08:36:48;0.06;67.26
63202;DHT22;49296;48.188;11.566;2023-02-28T08:39:15;0.11;67.37
63202;DHT22;49296;48.188;11.566;2023-02-28T08:41:43;0.30;66.80
63202;DHT22;49296;48.188;11.566;2023-02-28T08:44:10;0.48;66.27
63202;DHT22;49296;48.188;11.566;2023-02-28T08:46:37;0.34;66.92
63202;DHT22;49296;48.188;11.566;2023-02-28T08:49:04;0.26;66.96
63202;DHT22;49296;48.188;11.566;2023-02-28T08:51:32;0.18;66.97
63202;DHT22;49296;48.188;11.566;2023-02-28T08:54:00;0.45;66.46
63202;DHT22;49296;48.188;11.566;2023-02-28T08:56:27;0.26;66.35
63202;DHT22;49296;48.188;11.566;2023-02-28T08:58:56;0.30;66.62
63202;DHT22;49296;48.188;11.566;2023-02-28T09:01:25;0.45;66.27
63202;DHT22;49296;48.188;11.566;2023-02-28T09:03:54;0.36;66.09
63202;DHT22;49296;48.188;11.566;2023-02-28T09:06:22;0.28;66.31
63202;DHT22;49296;48.188;11.566;2023-02-28T09:08:50;0.37;66.53
63202;DHT22;49296;48.188;11.566;2023-02-28T09:11:17;0.47;66.28
63202;DHT22;49296;48.188;11.566;2023-02-28T09:13:45;0.30;66.58
63202;DHT22;49296;48.188;11.566;2023-02-28T09:16:15;0.54;66.34
63202;DHT22;49296;48.188;11.566;2023-02-28T09:18:42;0.45;65.98
63202;DHT22;49296;48.188;11.566;2023-02-28T09:21:11;0.45;66.12
63202;DHT22;49296;48.188;11.566;2023-02-28T09:23:39;0.69;65.22
63202;DHT22;49296;48.188;11.566;2023-02-28T09:26:07;0.83;65.06
63202;DHT22;49296;48.188;11.566;2023-02-28T09:28:34;0.80;65.16
63202;DHT22;49296;48.188;11.566;2023-02-28T09:31:00;0.96;64.79
63202;DHT22;49296;48.188;11.566;2023-02-28T09:33:31;1.10;64.79
63202;DHT22;49296;48.188;11.566;2023-02-28T09:36:00;0.86;65.02
63202;DHT22;49296;48.188;11.566;2023-02-28T09:38:27;0.85;65.70
63202;DHT22;49296;48.188;11.566;2023-02-28T09:40:56;1.14;65.32
63202;DHT22;49296;48.188;11.566;2023-02-28T09:43:27;1.23;64.19
63202;DHT22;49296;48.188;11.566;2023-02-28T09:45:56;1.01;65.31
63202;DHT22;49296;48.188;11.566;2023-02-28T09:48:27;1.04;65.00
63202;DHT22;49296;48.188;11.566;2023-02-28T09:51:01;1.19;64.59
63202;DHT22;49296;48.188;11.566;2023-02-28T09:53:31;1.16;64.32
63202;DHT22;49296;48.188;11.566;2023-02-28T09:56:02;1.07;64.09
63202;DHT22;49296;48.188;11.566;2023-02-28T09:58:34;1.19;63.93
63202;DHT22;49296;48.188;11.566;2023-02-28T10:01:11;1.19;63.72
63202;DHT22;49296;48.188;11.566;2023-02-28T10:03:40;1.04;63.78
63202;DHT22;49296;48.188;11.566;2023-02-28T10:06:14;0.92;64.35
63202;DHT22;49296;48.188;11.566;2023-02-28T10:08:49;1.10;64.46
63202;DHT22;49296;48.188;11.566;2023-02-28T10:11:17;0.96;64.13
63202;DHT22;49296;48.188;11.566;2023-02-28T10:13:52;1.07;64.20
63202;DHT22;49296;48.188;11.566;2023-02-28T10:16:25;1.07;63.98
63202;DHT22;49296;48.188;11.566;2023-02-28T10:18:59;1.10;64.00
63202;DHT22;49296;48.188;11.566;2023-02-28T10:21:30;1.04;63.80
63202;DHT22;49296;48.188;11.566;2023-02-28T10:24:03;1.00;64.16
63202;DHT22;49296;48.188;11.566;2023-02-28T10:26:32;1.19;63.80
63202;DHT22;49296;48.188;11.566;2023-02-28T10:28:59;1.20;63.89
63202;DHT22;49296;48.188;11.566;2023-02-28T10:31:26;1.28;64.41
63202;DHT22;49296;48.188;11.566;2023-02-28T10:33:53;1.33;64.91
63202;DHT22;49296;48.188;11.566;2023-02-28T10:36:21;1.58;64.21
63202;DHT22;49296;48.188;11.566;2023-02-28T10:38:49;1.47;63.74
63202;DHT22;49296;48.188;11.566;2023-02-28T10:41:27;1.48;64.08
63202;DHT22;49296;48.188;11.566;2023-02-28T10:44:13;1.40;63.51
63202;DHT22;49296;48.188;11.566;2023-02-28T10:46:40;1.49;63.73
63202;DHT22;49296;48.188;11.566;2023-02-28T10:49:13;1.47;64.14
63202;DHT22;49296;48.188;11.566;2023-02-28T10:51:41;1.24;64.64
63202;DHT22;49296;48.188;11.566;2023-02-28T10:54:18;1.38;65.24
63202;DHT22;49296;48.188;11.566;2023-02-28T10:56:45;1.34;64.36
63202;DHT22;49296;48.188;11.566;2023-02-28T10:59:27;1.68;64.33
63202;DHT22;49296;48.188;11.566;2023-02-28T11:01:54;1.93;63.99
63202;DHT22;49296;48.188;11.566;2023-02-28T11:04:33;1.83;63.85
63202;DHT22;49296;48.188;11.566;2023-02-28T11:07:16;2.07;63.52
63202;DHT22;49296;48.188;11.566;2023-02-28T11:09:48;2.18;64.75
63202;DHT22;49296;48.188;11.566;2023-02-28T11:12:23;2.30;65.05
63202;DHT22;49296;48.188;11.566;2023-02-28T11:14:56;2.31;62.44
63202;DHT22;49296;48.188;11.566;2023-02-28T11:17:24;2.00;62.07
63202;DHT22;49296;48.188;11.566;2023-02-28T11:19:53;1.96;62.19
63202;DHT22;49296;48.188;11.566;2023-02-28T11:22:23;1.94;62.29
63202;DHT22;49296;48.188;11.566;2023-02-28T11:24:57;2.04;62.65
63202;DHT22;49296;48.188;11.566;2023-02-28T11:27:46;1.89;62.15
63202;DHT22;49296;48.188;11.566;2023-02-28T11:30:33;1.82;62.37
63202;DHT22;49296;48.188;11.566;2023-02-28T11:33:07;1.86;63.00
63202;DHT22;49296;48.188;11.566;2023-02-28T11:35:45;1.99;62.65
63202;DHT22;49296;48.188;11.566;2023-02-28T11:38:14;2.03;62.93
63202;DHT22;49296;48.188;11.566;2023-02-28T11:40:47;2.15;62.99
63202;DHT22;49296;48.188;11.566;2023-02-28T11:43:29;2.15;62.63
63202;DHT22;49296;48.188;11.566;2023-02-28T11:46:06;2.38;62.37
63202;DHT22;49296;48.188;11.566;2023-02-28T11:48:42;2.55;62.36
63202;DHT22;49296;48.188;11.566;2023-02-28T11:51:21;2.37;63.39
63202;DHT22;49296;48.188;11.566;2023-02-28T11:54:01;2.59;62.55
63202;DHT22;49296;48.188;11.566;2023-02-28T11:56:36;2.72;61.81
63202;DHT22;49296;48.188;11.566;2023-02-28T11:59:16;2.52;61.68
63202;DHT22;49296;48.188;11.566;2023-02-28T12:02:03;2.71;61.69
63202;DHT22;49296;48.188;11.566;2023-02-28T12:04:38;2.73;61.00
63202;DHT22;49296;48.188;11.566;2023-02-28T12:07:11;2.77;61.94
63202;DHT22;49296;48.188;11.566;2023-02-28T12:09:47;2.90;61.11
63202;DHT22;49296;48.188;11.566;2023-02-28T12:12:25;2.87;61.61
63202;DHT22;49296;48.188;11.566;2023-02-28T12:15:13;2.35;62.35
63202;DHT22;49296;48.188;11.566;2023-02-28T12:17:51;2.55;62.49
63202;DHT22;49296;48.188;11.566;2023-02-28T12:20:26;2.83;61.91
63202;DHT22;49296;48.188;11.566;2023-02-28T12:26:02;3.10;60.63
63202;DHT22;49296;48.188;11.566;2023-02-28T12:28:41;3.19;60.66
63202;DHT22;49296;48.188;11.566;2023-02-28T12:31:14;3.18;60.27
63202;DHT22;49296;48.188;11.566;2023-02-28T12:33:46;2.58;61.30
63202;DHT22;49296;48.188;11.566;2023-02-28T12:36:18;2.73;61.35
63202;DHT22;49296;48.188;11.566;2023-02-28T12:38:50;2.96;61.89
63202;DHT22;49296;48.188;11.566;2023-02-28T12:41:24;3.01;61.03
63202;DHT22;49296;48.188;11.566;2023-02-28T12:44:01;3.32;60.74
63202;DHT22;49296;48.188;11.566;2023-02-28T12:46:32;3.40;60.35
63202;DHT22;49296;48.188;11.566;2023-02-28T12:49:04;3.39;60.83
63202;DHT22;49296;48.188;11.566;2023-02-28T12:51:32;3.36;60.72
63202;DHT22;49296;48.188;11.566;2023-02-28T12:54:07;3.63;59.52
63202;DHT22;49296;48.188;11.566;2023-02-28T12:56:43;3.94;59.08
63202;DHT22;49296;48.188;11.566;2023-02-28T12:59:19;4.07;58.23
63202;DHT22;49296;48.188;11.566;2023-02-28T13:02:00;3.76;59.17
63202;DHT22;49296;48.188;11.566;2023-02-28T13:04:47;4.18;58.61
63202;DHT22;49296;48.188;11.566;2023-02-28T13:07:39;4.29;57.84
63202;DHT22;49296;48.188;11.566;2023-02-28T13:10:16;4.11;58.65
63202;DHT22;49296;48.188;11.566;2023-02-28T13:12:48;3.91;58.02
63202;DHT22;49296;48.188;11.566;2023-02-28T13:15:19;4.02;58.75
63202;DHT22;49296;48.188;11.566;2023-02-28T13:17:50;4.21;57.88
63202;DHT22;49296;48.188;11.566;2023-02-28T13:20:19;4.54;57.11
63202;DHT22;49296;48.188;11.566;2023-02-28T13:22:48;4.49;57.09
63202;DHT22;49296;48.188;11.566;2023-02-28T13:25:52;4.61;56.85
63202;DHT22;49296;48.188;11.566;2023-02-28T13:34:46;4.64;56.97
63202;DHT22;49296;48.188;11.566;2023-02-28T13:37:34;4.28;57.92
63202;DHT22;49296;48.188;11.566;2023-02-28T13:40:29;4.31;58.12
63202;DHT22;49296;48.188;11.566;2023-02-28T13:43:02;4.05;58.29
63202;DHT22;49296;48.188;11.566;2023-02-28T13:45:30;3.97;57.87
63202;DHT22;49296;48.188;11.566;2023-02-28T13:48:15;3.88;58.30
63202;DHT22;49296;48.188;11.566;2023-02-28T13:50:43;3.80;59.05
63202;DHT22;49296;48.188;11.566;2023-02-28T13:53:37;3.79;59.35
63202;DHT22;49296;48.188;11.566;2023-02-28T13:56:21;3.99;58.61
63202;DHT22;49296;48.188;11.566;2023-02-28T13:58:54;4.39;57.32
63202;DHT22;49296;48.188;11.566;2023-02-28T14:01:31;4.53;57.56
63202;DHT22;49296;48.188;11.566;2023-02-28T14:04:15;4.59;57.74
63202;DHT22;49296;48.188;11.566;2023-02-28T14:06:52;4.53;57.47
63202;DHT22;49296;48.188;11.566;2023-02-28T14:09:23;4.66;57.17
63202;DHT22;49296;48.188;11.566;2023-02-28T14:11:51;4.78;56.72
63202;DHT22;49296;48.188;11.566;2023-02-28T14:17:28;4.97;56.24
63202;DHT22;49296;48.188;11.566;2023-02-28T14:19:57;4.94;56.07
63202;DHT22;49296;48.188;11.566;2023-02-28T14:22:50;4.94;56.34
63202;DHT22;49296;48.188;11.566;2023-02-28T14:25:23;4.61;56.92
63202;DHT22;49296;48.188;11.566;2023-02-28T14:28:02;4.57;57.79
63202;DHT22;49296;48.188;11.566;2023-02-28T14:30:56;4.63;56.61
63202;DHT22;49296;48.188;11.566;2023-02-28T14:33:35;4.67;56.58
63202;DHT22;49296;48.188;11.566;2023-02-28T14:36:12;4.84;55.80
63202;DHT22;49296;48.188;11.566;2023-02-28T14:38:44;4.83;56.02
63202;DHT22;49296;48.188;11.566;2023-02-28T14:41:17;4.60;56.85
63202;DHT22;49296;48.188;11.566;2023-02-28T14:43:54;4.80;56.22
63202;DHT22;49296;48.188;11.566;2023-02-28T14:46:25;4.76;56.97
63202;DHT22;49296;48.188;11.566;2023-02-28T14:48:53;4.71;56.65
63202;DHT22;49296;48.188;11.566;2023-02-28T14:51:23;4.78;56.43
63202;DHT22;49296;48.188;11.566;2023-02-28T14:53:52;4.73;56.36
63202;DHT22;49296;48.188;11.566;2023-02-28T14:56:25;4.80;56.29
63202;DHT22;49296;48.188;11.566;2023-02-28T14:58:55;4.88;56.17
63202;DHT22;49296;48.188;11.566;2023-02-28T15:01:23;4.99;56.28
63202;DHT22;49296;48.188;11.566;2023-02-28T15:03:58;5.04;55.83
63202;DHT22;49296;48.188;11.566;2023-02-28T15:06:28;5.15;55.86
63202;DHT22;49296;48.188;11.566;2023-02-28T15:09:17;5.26;55.81
63202;DHT22;49296;48.188;11.566;2023-02-28T15:11:47;5.44;55.12
63202;DHT22;49296;48.188;11.566;2023-02-28T15:14:19;5.49;54.98
63202;DHT22;49296;48.188;11.566;2023-02-28T15:16:50;5.49;54.73
63202;DHT22;49296;48.188;11.566;2023-02-28T15:19:22;5.61;54.66
63202;DHT22;49296;48.188;11.566;2023-02-28T15:21:55;5.70;54.26
63202;DHT22;49296;48.188;11.566;2023-02-28T15:24:30;5.90;54.10
63202;DHT22;49296;48.188;11.566;2023-02-28T15:26:59;5.83;54.31
63202;DHT22;49296;48.188;11.566;2023-02-28T15:29:28;5.81;54.17
63202;DHT22;49296;48.188;11.566;2023-02-28T15:31:56;5.40;55.07
63202;DHT22;49296;48.188;11.566;2023-02-28T15:34:28;5.36;55.74
63202;DHT22;49296;48.188;11.566;2023-02-28T15:36:57;5.42;55.61
63202;DHT22;49296;48.188;11.566;2023-02-28T15:39:26;5.36;55.49
63202;DHT22;49296;48.188;11.566;2023-02-28T15:42:11;5.28;55.63
63202;DHT22;49296;48.188;11.566;2023-02-28T15:44:38;5.18;56.10
63202;DHT22;49296;48.188;11.566;2023-02-28T15:47:07;5.07;56.43
63202;DHT22;49296;48.188;11.566;2023-02-28T15:49:47;5.05;56.47
63202;DHT22;49296;48.188;11.566;2023-02-28T15:52:18;4.94;56.61
63202;DHT22;49296;48.188;11.566;2023-02-28T15:54:46;4.92;56.43
63202;DHT22;49296;48.188;11.566;2023-02-28T15:57:15;4.84;56.46
63202;DHT22;49296;48.188;11.566;2023-02-28T15:59:49;4.76;57.19
63202;DHT22;49296;48.188;11.566;2023-02-28T16:02:19;4.80;57.21
63202;DHT22;49296;48.188;11.566;2023-02-28T16:04:57;4.84;57.15